Time;durP1;ratioP1;P1;durP2;ratioP2;P2;SDS_P1;SDS_P2;PMS_P1;PMS_P2;Temp;Humidity;BMP_temperature;BMP_pressure;BME280_temperature;BME280_humidity;BME280_pressure;Samples;Min_cycle;Max_cycle;Signal;HPM_P1;HPM_P2
2022/01/11 22:01:29;;;;;;;19.47;12.37;;;;;;;2.74;87.45;103404.09;5268995;28;20369;-74
2022/01/11 22:04:00;;;;;;;25.70;14.07;;;;;;;2.74;87.86;103401.50;5267580;28;20052;-73
2022/01/11 22:06:32;;;;;;;23.10;13.17;;;;;;;2.76;87.53;103399.78;5269450;28;20017;-76
2022/01/11 22:09:03;;;;;;;19.30;12.27;;;;;;;2.75;87.13;103417.03;5268248;28;20537;-79
2022/01/11 22:11:34;;;;;;;18.83;12.77;;;;;;;2.84;87.59;103423.19;5266139;28;20024;-80
2022/01/11 22:14:26;;;;;;;24.20;12.97;;;;;;;2.76;87.28;103433.41;5269198;28;20147;-77
2022/01/11 22:19:47;;;;;;;20.10;13.57;;;;;;;2.83;87.72;103424.06;5264597;28;20037;-80
2022/01/11 22:22:18;;;;;;;19.63;11.57;;;;;;;2.94;87.61;103440.59;5269249;28;20361;-83
2022/01/11 22:24:51;;;;;;;21.93;12.30;;;;;;;2.87;86.76;103434.47;5266905;28;20047;-80
2022/01/11 22:27:22;;;;;;;22.03;12.17;;;;;;;2.98;86.95;103436.34;5269054;28;20143;-79
2022/01/11 22:29:54;;;;;;;18.73;11.80;;;;;;;3.04;86.82;103445.91;5269038;28;20100;-80
2022/01/11 22:32:26;;;;;;;20.47;12.73;;;;;;;3.00;87.03;103432.91;5267940;28;20028;-80
2022/01/11 22:34:58;;;;;;;19.90;12.53;;;;;;;2.97;86.48;103437.16;5268141;28;20095;-79
2022/01/11 22:37:30;;;;;;;20.23;12.60;;;;;;;3.03;86.47;103442.47;5267147;28;20056;-80
2022/01/11 22:40:06;;;;;;;19.27;13.13;;;;;;;2.96;86.68;103449.28;5266382;28;20140;-80
2022/01/11 22:42:37;;;;;;;19.20;12.57;;;;;;;3.01;86.46;103446.72;5264149;28;20570;-80
2022/01/11 22:45:09;;;;;;;20.77;12.27;;;;;;;2.99;86.24;103443.25;5265548;28;20108;-81
2022/01/11 22:47:40;;;;;;;20.00;12.17;;;;;;;3.04;85.73;103441.59;5263676;28;20032;-80
2022/01/11 22:50:12;;;;;;;17.07;12.43;;;;;;;3.00;86.33;103432.06;5267135;28;20057;-80
2022/01/11 22:52:43;;;;;;;22.20;12.53;;;;;;;3.09;85.74;103454.63;5267306;28;20021;-80
2022/01/11 22:55:15;;;;;;;22.97;12.03;;;;;;;3.14;85.84;103455.56;5267025;28;20115;-80
2022/01/11 22:57:46;;;;;;;25.87;13.00;;;;;;;3.09;84.90;103449.44;5265498;28;20020;-79
2022/01/11 23:00:17;;;;;;;20.37;11.60;;;;;;;3.16;85.67;103460.75;5265974;28;20051;-79
2022/01/11 23:02:51;;;;;;;20.40;13.03;;;;;;;3.18;85.79;103454.72;5265737;28;20094;-80
2022/01/11 23:05:22;;;;;;;17.45;11.07;;;;;;;3.08;85.08;103439.91;5264813;28;20024;-80
2022/01/11 23:07:54;;;;;;;18.67;12.33;;;;;;;3.06;85.34;103423.47;5266812;28;20610;-80
2022/01/11 23:10:28;;;;;;;22.33;12.07;;;;;;;3.08;85.73;103427.84;5266898;28;20527;-80
2022/01/11 23:13:32;;;;;;;21.88;13.10;;;;;;;3.12;85.20;103423.59;5253104;28;20017;-80
2022/01/11 23:16:03;;;;;;;20.67;12.10;;;;;;;3.13;84.51;103431.38;5251048;28;20055;-81
2022/01/11 23:18:34;;;;;;;21.57;12.77;;;;;;;3.09;85.56;103439.09;5253028;28;20017;-80
2022/01/11 23:21:06;;;;;;;16.90;11.50;;;;;;;3.07;84.71;103446.81;5254141;28;20017;-80
2022/01/11 23:23:37;;;;;;;19.90;12.97;;;;;;;3.07;85.79;103433.84;5253222;28;20127;-81
2022/01/11 23:26:08;;;;;;;21.57;12.67;;;;;;;3.09;85.44;103439.94;5252740;28;20364;-81
2022/01/11 23:28:40;;;;;;;16.93;11.70;;;;;;;2.79;85.74;103394.66;5252018;28;20029;-80
2022/01/11 23:31:12;;;;;;;19.87;12.97;;;;;;;3.13;85.67;103426.19;5253713;28;20036;-81
2022/01/11 23:33:43;;;;;;;22.27;12.27;;;;;;;3.09;85.19;103403.69;5251522;28;20491;-81
2022/01/11 23:36:15;;;;;;;20.83;12.73;;;;;;;3.19;84.62;103419.34;5252211;28;20025;-81
2022/01/11 23:38:55;;;;;;;22.10;12.63;;;;;;;3.17;85.07;103414.16;5253389;28;20025;-80
2022/01/11 23:41:41;;;;;;;21.07;13.30;;;;;;;3.19;84.64;103412.47;5251854;28;20150;-80
2022/01/11 23:44:32;;;;;;;19.10;12.97;;;;;;;3.02;84.37;103419.97;5254797;28;20436;-80
2022/01/11 23:47:03;;;;;;;25.57;12.87;;;;;;;3.10;84.73;103444.28;5251284;28;20027;-81
2022/01/11 23:49:35;;;;;;;25.60;13.43;;;;;;;3.12;85.18;103433.94;5252236;28;20482;-80
2022/01/11 23:52:08;;;;;;;24.70;13.23;;;;;;;3.11;84.54;103430.47;5251532;28;20032;-80
2022/01/11 23:54:39;;;;;;;24.10;14.53;;;;;;;3.16;85.00;103429.69;5253998;28;20025;-81
2022/01/11 23:57:11;;;;;;;20.77;13.07;;;;;;;3.10;84.86;103420.97;5252319;28;20413;-81
2022/01/11 23:59:43;;;;;;;22.10;12.90;;;;;;;3.10;84.35;103441.69;5253628;28;20045;-81
